createdAt,value
2017-10-29T00:00:15.390Z,7.60
2017-10-29T00:02:43.529Z,7.60
2017-10-29T00:05:11.503Z,7.60
2017-10-29T00:07:40.417Z,7.70
2017-10-29T00:10:08.407Z,7.70
2017-10-29T00:12:36.482Z,7.70
2017-10-29T00:15:04.606Z,7.70
2017-10-29T00:17:32.623Z,7.70
2017-10-29T00:20:00.746Z,7.70
2017-10-29T00:22:29.527Z,7.80
2017-10-29T00:24:57.711Z,7.80
2017-10-29T00:27:25.682Z,7.80
2017-10-29T00:29:53.752Z,7.80
2017-10-29T00:32:22.441Z,7.90
2017-10-29T00:34:50.553Z,7.90
2017-10-29T00:37:18.663Z,7.90
2017-10-29T00:39:46.360Z,7.90
2017-10-29T00:42:14.212Z,7.90
2017-10-29T00:44:42.842Z,7.90
2017-10-29T00:47:10.822Z,7.90
2017-10-29T00:49:38.737Z,7.90
2017-10-29T00:52:06.813Z,7.90
2017-10-29T00:54:34.861Z,7.90
2017-10-29T00:57:02.954Z,7.90
2017-10-29T00:59:31.172Z,8.00
2017-10-29T01:01:59.238Z,8.00
2017-10-29T01:04:28.091Z,8.00
2017-10-29T01:06:56.163Z,8.00
2017-10-29T01:09:24.337Z,8.10
2017-10-29T01:11:52.462Z,8.10
2017-10-29T01:14:20.531Z,8.10
2017-10-29T01:16:48.494Z,8.10
2017-10-29T01:19:16.600Z,8.10
2017-10-29T01:21:44.873Z,8.20
2017-10-29T01:24:13.065Z,8.20
2017-10-29T01:26:41.043Z,8.20
2017-10-29T01:29:08.890Z,8.20
2017-10-29T01:31:37.362Z,8.20
2017-10-29T01:34:05.385Z,8.30
2017-10-29T01:36:33.285Z,8.30
2017-10-29T01:39:01.068Z,8.30
2017-10-29T01:41:28.947Z,8.30
2017-10-29T01:43:57.769Z,8.30
2017-10-29T01:46:25.630Z,8.40
2017-10-29T01:48:53.670Z,8.40
2017-10-29T01:51:21.794Z,8.40
2017-10-29T01:53:49.779Z,8.50
2017-10-29T01:56:17.896Z,8.50
2017-10-29T01:58:45.839Z,8.50
2017-10-29T02:01:13.650Z,8.50
2017-10-29T02:03:41.293Z,8.50
2017-10-29T02:06:09.312Z,8.50
2017-10-29T02:08:37.680Z,8.60
2017-10-29T02:11:05.617Z,8.60
2017-10-29T02:13:33.412Z,8.60
2017-10-29T02:16:01.237Z,8.60
2017-10-29T02:18:29.239Z,8.60
2017-10-29T02:20:57.077Z,8.70
2017-10-29T02:23:24.985Z,8.70
2017-10-29T02:25:52.866Z,8.70
2017-10-29T02:28:21.541Z,8.70
2017-10-29T02:30:49.613Z,8.70
2017-10-29T02:33:17.522Z,8.80
2017-10-29T02:35:45.444Z,8.80
2017-10-29T02:38:13.207Z,8.80
2017-10-29T02:40:41.493Z,8.80
2017-10-29T02:43:09.632Z,8.90
2017-10-29T02:45:37.891Z,8.90
2017-10-29T02:48:05.637Z,9.00
2017-10-29T02:50:33.697Z,9.00
2017-10-29T02:53:01.439Z,9.00
2017-10-29T02:55:29.157Z,9.00
2017-10-29T02:57:56.881Z,9.00
2017-10-29T03:00:26.028Z,9.00
2017-10-29T03:02:54.193Z,9.00
2017-10-29T03:05:21.962Z,9.00
2017-10-29T03:07:49.663Z,9.00
2017-10-29T03:10:17.480Z,9.10
2017-10-29T03:12:45.490Z,9.10
2017-10-29T03:15:13.128Z,9.10
2017-10-29T03:17:41.123Z,9.20
2017-10-29T03:20:09.171Z,9.20
2017-10-29T03:22:37.346Z,9.30
2017-10-29T03:25:05.539Z,9.30
2017-10-29T03:27:33.740Z,9.30
2017-10-29T03:30:01.662Z,9.30
2017-10-29T03:32:30.220Z,9.30
2017-10-29T03:34:58.153Z,9.30
2017-10-29T03:37:26.020Z,9.30
2017-10-29T03:39:53.765Z,9.30
2017-10-29T03:42:21.388Z,9.30
2017-10-29T03:44:49.074Z,9.30
2017-10-29T03:47:17.210Z,9.30
2017-10-29T03:49:46.035Z,9.30
2017-10-29T03:52:13.878Z,9.30
2017-10-29T03:54:41.875Z,9.30
2017-10-29T03:57:09.885Z,9.40
2017-10-29T03:59:37.709Z,9.40
2017-10-29T04:02:05.701Z,9.50
2017-10-29T04:04:33.423Z,9.40
2017-10-29T04:07:01.074Z,9.40
2017-10-29T04:09:29.527Z,9.40
2017-10-29T04:11:57.348Z,9.40
2017-10-29T04:14:25.318Z,9.50
2017-10-29T04:16:53.224Z,9.50
2017-10-29T04:19:21.152Z,9.50
2017-10-29T04:21:49.328Z,9.50
2017-10-29T04:24:17.038Z,9.50
2017-10-29T04:26:45.779Z,9.60
2017-10-29T04:29:13.596Z,9.60
2017-10-29T04:31:41.513Z,9.70
2017-10-29T04:34:10.156Z,9.60
2017-10-29T04:36:38.078Z,9.60
2017-10-29T04:39:05.744Z,9.70
2017-10-29T04:41:34.074Z,9.70
2017-10-29T04:44:01.802Z,9.70
2017-10-29T04:46:29.461Z,9.70
2017-10-29T04:48:57.087Z,9.70
2017-10-29T04:51:24.858Z,9.80
2017-10-29T04:53:52.562Z,9.80
2017-10-29T04:56:20.174Z,9.80
2017-10-29T04:58:48.386Z,9.70
2017-10-29T05:01:16.012Z,9.70
2017-10-29T05:03:43.617Z,9.70
2017-10-29T05:06:11.228Z,9.70
2017-10-29T05:08:38.895Z,9.70
2017-10-29T05:11:06.572Z,9.60
2017-10-29T05:13:34.346Z,9.60
2017-10-29T05:16:02.139Z,9.50
2017-10-29T05:18:29.802Z,9.40
2017-10-29T05:20:57.389Z,9.30
2017-10-29T05:23:25.080Z,9.10
2017-10-29T05:25:52.703Z,9.00
2017-10-29T05:28:21.637Z,8.80
2017-10-29T05:30:49.706Z,8.70
2017-10-29T05:33:17.502Z,8.60
2017-10-29T05:35:46.009Z,8.60
2017-10-29T05:38:13.922Z,8.50
2017-10-29T05:40:41.759Z,8.50
2017-10-29T05:43:09.483Z,8.50
2017-10-29T05:45:37.264Z,8.50
2017-10-29T05:48:05.792Z,8.40
2017-10-29T05:50:33.592Z,8.40
2017-10-29T05:53:01.419Z,8.40
2017-10-29T05:55:29.096Z,8.40
2017-10-29T05:57:57.055Z,8.30
2017-10-29T06:00:26.100Z,8.30
2017-10-29T06:02:53.921Z,8.20
2017-10-29T06:05:22.101Z,8.10
2017-10-29T06:07:50.857Z,7.60
2017-10-29T06:10:19.211Z,6.90
2017-10-29T06:12:47.849Z,6.50
2017-10-29T06:18:41.217Z,6.10
2017-10-29T06:23:41.911Z,5.80
2017-10-29T06:26:10.040Z,5.80
2017-10-29T06:28:38.464Z,5.90
2017-10-29T06:31:06.817Z,5.90
2017-10-29T06:33:34.903Z,6.00
2017-10-29T06:36:02.950Z,6.10
2017-10-29T06:38:30.899Z,6.10
2017-10-29T06:40:59.233Z,6.10
2017-10-29T06:43:27.483Z,6.10
2017-10-29T06:45:55.789Z,6.00
2017-10-29T06:48:24.781Z,6.00
2017-10-29T06:50:52.926Z,6.00
2017-10-29T06:53:20.922Z,6.00
2017-10-29T06:55:49.688Z,6.00
2017-10-29T06:58:17.748Z,6.00
2017-10-29T07:00:46.007Z,6.10
2017-10-29T07:03:14.187Z,6.10
2017-10-29T07:05:41.993Z,6.20
2017-10-29T07:08:09.838Z,6.20
2017-10-29T07:10:37.576Z,6.20
2017-10-29T07:13:05.360Z,6.20
2017-10-29T07:15:33.147Z,6.20
2017-10-29T07:18:01.041Z,6.20
2017-10-29T07:20:29.836Z,6.30
2017-10-29T07:22:57.777Z,6.30
2017-10-29T07:25:25.493Z,6.30
2017-10-29T07:27:54.372Z,6.50
2017-10-29T07:30:34.511Z,6.40
2017-10-29T07:33:02.387Z,6.50
2017-10-29T07:35:30.506Z,6.60
2017-10-29T07:37:58.428Z,6.60
2017-10-29T07:40:26.189Z,6.60
2017-10-29T07:42:54.139Z,6.70
2017-10-29T07:45:22.038Z,6.70
2017-10-29T07:47:50.169Z,6.70
2017-10-29T07:50:17.865Z,6.70
2017-10-29T07:52:45.639Z,6.70
2017-10-29T07:55:13.354Z,6.70
2017-10-29T07:57:40.990Z,6.80
2017-10-29T08:00:08.876Z,6.70
2017-10-29T08:02:36.735Z,6.80
2017-10-29T08:05:04.540Z,6.80
2017-10-29T08:07:33.324Z,6.90
2017-10-29T08:10:01.194Z,6.80
2017-10-29T08:12:29.182Z,6.80
2017-10-29T08:14:56.994Z,6.90
2017-10-29T08:17:24.787Z,6.90
2017-10-29T08:19:52.769Z,6.90
2017-10-29T08:22:20.729Z,7.00
2017-10-29T08:24:48.822Z,7.00
2017-10-29T08:27:16.601Z,7.00
2017-10-29T08:29:44.659Z,7.00
2017-10-29T08:32:12.958Z,7.00
2017-10-29T08:34:41.888Z,7.00
2017-10-29T08:37:09.864Z,7.00
2017-10-29T08:39:38.920Z,7.00
2017-10-29T08:42:07.073Z,7.00
2017-10-29T08:44:35.240Z,7.00
2017-10-29T08:47:04.881Z,7.10
2017-10-29T08:49:32.853Z,7.00
2017-10-29T08:52:01.230Z,7.10
2017-10-29T08:54:29.759Z,7.00
2017-10-29T08:56:57.376Z,7.10
2017-10-29T08:59:25.055Z,7.10
2017-10-29T09:01:52.719Z,7.10
2017-10-29T09:04:20.839Z,7.10
2017-10-29T09:06:48.413Z,7.10
2017-10-29T09:09:15.987Z,7.10
2017-10-29T09:11:43.651Z,7.10
2017-10-29T09:14:11.260Z,7.20
2017-10-29T09:16:39.154Z,7.20
2017-10-29T09:19:06.788Z,7.10
2017-10-29T09:21:34.423Z,7.20
2017-10-29T09:24:02.048Z,7.20
2017-10-29T09:26:29.663Z,7.20
2017-10-29T09:28:57.338Z,7.20
2017-10-29T09:31:24.967Z,7.10
2017-10-29T09:33:52.578Z,7.00
2017-10-29T09:36:20.195Z,7.00
2017-10-29T09:38:47.784Z,6.90
2017-10-29T09:41:15.711Z,6.90
2017-10-29T09:43:43.315Z,6.80
2017-10-29T09:46:11.034Z,6.70
2017-10-29T09:48:38.649Z,6.80
2017-10-29T09:51:07.093Z,6.80
2017-10-29T09:53:34.825Z,6.80
2017-10-29T09:56:02.430Z,6.80
2017-10-29T09:58:30.062Z,6.80
2017-10-29T10:00:57.714Z,6.80
2017-10-29T10:03:25.326Z,6.80
2017-10-29T10:05:52.935Z,6.80
2017-10-29T10:08:20.550Z,6.80
2017-10-29T10:10:48.163Z,6.90
2017-10-29T10:13:15.772Z,6.90
2017-10-29T10:15:43.385Z,6.90
2017-10-29T10:18:10.951Z,7.00
2017-10-29T10:20:38.562Z,7.00
2017-10-29T10:23:06.202Z,7.00
2017-10-29T10:25:33.773Z,7.00
2017-10-29T10:28:01.399Z,7.00
2017-10-29T10:30:29.638Z,7.00
2017-10-29T10:32:58.114Z,7.00
2017-10-29T10:35:26.554Z,7.00
2017-10-29T10:37:54.507Z,7.00
2017-10-29T10:40:22.075Z,6.90
2017-10-29T10:42:49.702Z,6.90
2017-10-29T10:45:17.323Z,6.80
2017-10-29T10:47:44.943Z,6.80
2017-10-29T10:50:12.581Z,6.70
2017-10-29T10:52:40.280Z,6.70
2017-10-29T10:55:07.921Z,6.70
2017-10-29T10:57:35.492Z,6.60
2017-10-29T11:00:03.160Z,6.60
2017-10-29T11:02:30.792Z,6.60
2017-10-29T11:04:58.388Z,6.50
2017-10-29T11:07:25.990Z,6.60
2017-10-29T11:09:53.592Z,6.60
2017-10-29T11:12:21.195Z,6.60
2017-10-29T11:14:48.779Z,6.60
2017-10-29T11:17:16.382Z,6.60
2017-10-29T11:19:44.039Z,6.60
2017-10-29T11:22:12.271Z,6.70
2017-10-29T11:24:40.254Z,6.60
2017-10-29T11:27:07.867Z,6.70
2017-10-29T11:29:35.485Z,6.70
2017-10-29T11:32:03.094Z,6.70
2017-10-29T11:34:30.734Z,6.70
2017-10-29T11:36:58.529Z,6.60
2017-10-29T11:39:26.882Z,6.50
2017-10-29T11:41:54.718Z,6.50
2017-10-29T11:44:22.390Z,6.40
2017-10-29T11:46:50.355Z,6.30
2017-10-29T11:49:18.004Z,6.30
2017-10-29T11:51:45.621Z,6.20
2017-10-29T11:54:13.310Z,6.20
2017-10-29T11:56:40.900Z,6.10
2017-10-29T11:59:08.488Z,6.10
2017-10-29T12:01:36.072Z,6.00
2017-10-29T12:04:03.698Z,6.00
2017-10-29T12:06:35.723Z,6.00
2017-10-29T12:09:03.425Z,6.10
2017-10-29T12:11:31.065Z,6.00
2017-10-29T12:13:58.708Z,6.00
2017-10-29T12:16:26.352Z,6.00
2017-10-29T12:18:53.964Z,6.00
2017-10-29T12:21:21.586Z,6.00
2017-10-29T12:23:49.204Z,6.00
2017-10-29T12:26:16.818Z,6.00
2017-10-29T12:28:44.536Z,6.00
2017-10-29T12:31:12.144Z,6.00
2017-10-29T12:33:39.756Z,6.10
2017-10-29T12:36:07.387Z,6.10
2017-10-29T12:38:35.010Z,6.10
2017-10-29T12:41:02.598Z,6.20
2017-10-29T12:43:30.209Z,6.20
2017-10-29T12:45:57.889Z,6.20
2017-10-29T12:48:25.518Z,6.20
2017-10-29T12:50:53.311Z,6.20
2017-10-29T12:53:20.959Z,6.10
2017-10-29T12:55:48.622Z,6.00
2017-10-29T12:58:16.280Z,5.90
2017-10-29T13:00:44.425Z,5.90
2017-10-29T13:03:12.076Z,5.70
2017-10-29T13:05:39.663Z,5.50
2017-10-29T13:08:07.247Z,5.40
2017-10-29T13:10:34.837Z,5.40
2017-10-29T13:13:02.462Z,5.30
2017-10-29T13:15:30.346Z,5.30
2017-10-29T13:17:58.250Z,5.30
2017-10-29T13:20:26.750Z,5.20
2017-10-29T13:22:54.359Z,5.20
2017-10-29T13:25:21.939Z,5.30
2017-10-29T13:27:50.378Z,5.20
2017-10-29T13:30:18.044Z,5.20
2017-10-29T13:32:45.658Z,5.20
2017-10-29T13:35:13.282Z,5.20
2017-10-29T13:37:40.917Z,5.10
2017-10-29T13:40:08.550Z,5.10
2017-10-29T13:42:36.305Z,5.00
2017-10-29T13:45:04.728Z,4.90
2017-10-29T13:47:32.350Z,4.80
2017-10-29T13:49:59.977Z,4.90
2017-10-29T13:52:27.629Z,4.90
2017-10-29T13:54:55.266Z,4.90
2017-10-29T13:57:22.891Z,4.80
2017-10-29T13:59:50.540Z,4.90
2017-10-29T14:02:18.207Z,4.90
2017-10-29T14:04:45.866Z,4.90
2017-10-29T14:07:14.281Z,4.80
2017-10-29T14:09:42.043Z,4.80
2017-10-29T14:12:10.137Z,4.70
2017-10-29T14:14:37.771Z,4.70
2017-10-29T14:17:05.446Z,4.70
2017-10-29T14:19:33.087Z,4.70
2017-10-29T14:22:00.681Z,4.70
2017-10-29T14:24:28.568Z,4.80
2017-10-29T14:26:56.201Z,4.80
2017-10-29T14:29:27.838Z,4.80
2017-10-29T14:31:55.517Z,4.80
2017-10-29T14:34:23.109Z,4.90
2017-10-29T14:36:50.818Z,4.80
2017-10-29T14:39:18.584Z,4.80
2017-10-29T14:41:46.202Z,4.80
2017-10-29T14:44:13.885Z,4.70
2017-10-29T14:46:42.343Z,4.80
2017-10-29T14:49:10.144Z,4.80
2017-10-29T14:51:37.777Z,4.80
2017-10-29T14:54:05.360Z,4.80
2017-10-29T14:56:32.982Z,4.80
2017-10-29T14:59:00.638Z,4.90
2017-10-29T15:01:28.217Z,4.90
2017-10-29T15:03:55.826Z,4.80
2017-10-29T15:06:23.414Z,4.80
2017-10-29T15:08:51.036Z,4.90
2017-10-29T15:11:18.654Z,4.90
2017-10-29T15:13:46.291Z,4.90
2017-10-29T15:16:13.934Z,4.90
2017-10-29T15:18:41.550Z,4.90
2017-10-29T15:21:09.123Z,4.80
2017-10-29T15:23:36.782Z,4.80
2017-10-29T15:26:04.521Z,4.90
2017-10-29T15:28:32.427Z,4.90
2017-10-29T15:31:00.390Z,4.90
2017-10-29T15:33:28.063Z,4.90
2017-10-29T15:35:55.697Z,4.90
2017-10-29T15:38:23.318Z,4.90
2017-10-29T15:40:51.229Z,4.90
2017-10-29T15:43:18.888Z,4.90
2017-10-29T15:45:46.554Z,4.90
2017-10-29T15:48:14.178Z,4.90
2017-10-29T15:50:41.830Z,4.90
2017-10-29T15:53:09.621Z,4.80
2017-10-29T15:55:37.396Z,4.90
2017-10-29T15:58:04.991Z,4.80
2017-10-29T16:00:32.599Z,4.90
2017-10-29T16:03:00.231Z,4.90
2017-10-29T16:05:27.938Z,4.90
2017-10-29T16:07:55.548Z,4.90
2017-10-29T16:10:23.384Z,4.90
2017-10-29T16:12:51.196Z,4.90
2017-10-29T16:15:18.881Z,5.00
2017-10-29T16:17:46.480Z,5.00
2017-10-29T16:20:14.871Z,4.90
2017-10-29T16:22:42.582Z,4.90
2017-10-29T16:25:10.199Z,5.00
2017-10-29T16:27:37.835Z,4.90
2017-10-29T16:30:05.474Z,4.90
2017-10-29T16:32:33.148Z,5.00
2017-10-29T16:35:00.802Z,4.90
2017-10-29T16:37:28.448Z,4.90
2017-10-29T16:39:56.082Z,4.90
2017-10-29T16:42:23.710Z,4.90
2017-10-29T16:44:51.296Z,5.00
2017-10-29T16:47:18.978Z,5.00
2017-10-29T16:49:46.737Z,5.00
2017-10-29T16:52:14.439Z,5.00
2017-10-29T16:54:42.030Z,5.00
2017-10-29T16:57:10.546Z,5.00
2017-10-29T16:59:38.135Z,5.00
2017-10-29T17:02:05.732Z,4.90
2017-10-29T17:04:34.164Z,4.90
2017-10-29T17:07:01.920Z,4.90
2017-10-29T17:09:29.620Z,4.90
2017-10-29T17:11:57.238Z,4.80
2017-10-29T17:14:24.852Z,4.80
2017-10-29T17:16:52.482Z,4.70
2017-10-29T17:19:20.194Z,4.80
2017-10-29T17:21:48.635Z,4.70
2017-10-29T17:24:16.298Z,4.70
2017-10-29T17:26:43.940Z,4.70
2017-10-29T17:29:11.591Z,4.70
2017-10-29T17:31:39.337Z,4.60
2017-10-29T17:34:07.530Z,4.60
2017-10-29T17:36:35.322Z,4.60
2017-10-29T17:39:02.971Z,4.60
2017-10-29T17:41:30.643Z,4.50
2017-10-29T17:43:58.406Z,4.50
2017-10-29T17:46:26.658Z,4.50
2017-10-29T17:48:54.342Z,4.50
2017-10-29T17:51:21.984Z,4.50
2017-10-29T17:53:55.287Z,4.50
2017-10-29T17:56:22.966Z,4.50
2017-10-29T17:58:50.730Z,4.50
2017-10-29T18:01:18.594Z,4.40
2017-10-29T18:03:46.394Z,4.40
2017-10-29T18:06:14.908Z,4.50
2017-10-29T18:08:44.966Z,4.50
2017-10-29T18:11:12.795Z,4.50
2017-10-29T18:13:40.627Z,4.50
2017-10-29T18:16:08.330Z,4.50
2017-10-29T18:18:37.004Z,4.50
2017-10-29T18:21:04.618Z,4.50
2017-10-29T18:23:32.605Z,4.50
2017-10-29T18:26:00.264Z,4.50
2017-10-29T18:28:27.978Z,4.40
2017-10-29T18:30:55.606Z,4.50
2017-10-29T18:33:23.231Z,4.40
2017-10-29T18:35:50.807Z,4.40
2017-10-29T18:38:18.503Z,4.40
2017-10-29T18:40:46.550Z,4.40
2017-10-29T18:43:14.382Z,4.40
2017-10-29T18:45:42.011Z,4.40
2017-10-29T18:48:09.832Z,4.40
2017-10-29T18:50:37.459Z,4.50
2017-10-29T18:53:05.040Z,4.50
2017-10-29T18:55:36.763Z,4.50
2017-10-29T18:58:06.115Z,4.50
2017-10-29T19:00:40.381Z,4.50
2017-10-29T19:03:16.008Z,4.50
2017-10-29T19:05:47.857Z,4.50
2017-10-29T19:08:15.812Z,4.50
2017-10-29T19:10:45.207Z,4.50
2017-10-29T19:13:12.814Z,4.60
2017-10-29T19:15:40.714Z,4.60
2017-10-29T19:18:08.653Z,4.50
2017-10-29T19:20:41.531Z,4.50
2017-10-29T19:23:09.338Z,4.50
2017-10-29T19:25:38.398Z,4.50
2017-10-29T19:28:09.728Z,4.60
2017-10-29T19:30:38.630Z,4.60
2017-10-29T19:33:11.291Z,4.50
2017-10-29T19:35:38.949Z,4.60
2017-10-29T19:38:06.693Z,4.60
2017-10-29T19:40:34.412Z,4.60
2017-10-29T19:43:02.829Z,4.60
2017-10-29T19:45:31.917Z,4.60
2017-10-29T19:47:59.930Z,4.60
2017-10-29T19:50:28.682Z,4.60
2017-10-29T19:52:58.212Z,4.60
2017-10-29T19:55:27.856Z,4.60
2017-10-29T19:57:56.035Z,4.60
2017-10-29T20:00:24.134Z,4.60
2017-10-29T20:02:52.290Z,4.60
2017-10-29T20:05:20.397Z,4.60
2017-10-29T20:07:49.891Z,4.60
2017-10-29T20:10:17.800Z,4.70
2017-10-29T20:12:45.877Z,4.70
2017-10-29T20:15:14.235Z,4.70
2017-10-29T20:17:42.125Z,4.70
2017-10-29T20:20:09.857Z,4.70
2017-10-29T20:22:47.352Z,4.70
2017-10-29T20:25:15.441Z,4.70
2017-10-29T20:27:43.327Z,4.70
2017-10-29T20:30:11.289Z,4.70
2017-10-29T20:32:39.008Z,4.60
2017-10-29T20:35:06.675Z,4.60
2017-10-29T20:37:34.763Z,4.60
2017-10-29T20:40:02.864Z,4.60
2017-10-29T20:42:30.960Z,4.60
2017-10-29T20:45:00.705Z,4.60
2017-10-29T20:47:30.605Z,4.50
2017-10-29T20:49:58.882Z,4.60
2017-10-29T20:52:27.159Z,4.50
2017-10-29T20:54:56.306Z,4.50
2017-10-29T20:57:24.609Z,4.50
2017-10-29T20:59:52.765Z,4.50
2017-10-29T21:02:21.195Z,4.50
2017-10-29T21:04:49.395Z,4.40
2017-10-29T21:07:20.210Z,4.40
2017-10-29T21:09:49.611Z,4.40
2017-10-29T21:12:17.986Z,4.40
2017-10-29T21:14:46.314Z,4.40
2017-10-29T21:17:16.646Z,4.30
2017-10-29T21:19:45.666Z,4.30
2017-10-29T21:22:13.744Z,4.30
2017-10-29T21:24:41.963Z,4.30
2017-10-29T21:27:10.194Z,4.30
2017-10-29T21:29:38.464Z,4.30
2017-10-29T21:32:06.797Z,4.20
2017-10-29T21:34:35.026Z,4.20
2017-10-29T21:37:03.133Z,4.20
2017-10-29T21:39:31.207Z,4.20
2017-10-29T21:41:59.372Z,4.20
2017-10-29T21:44:27.511Z,4.20
2017-10-29T21:46:55.363Z,4.20
2017-10-29T21:49:23.369Z,4.20
2017-10-29T21:51:51.532Z,4.10
2017-10-29T21:54:19.488Z,4.20
2017-10-29T21:56:47.414Z,4.10
2017-10-29T21:59:15.542Z,4.10
2017-10-29T22:01:44.518Z,4.10
2017-10-29T22:04:14.281Z,4.10
2017-10-29T22:06:43.201Z,4.10
2017-10-29T22:09:11.441Z,4.20
2017-10-29T22:11:39.735Z,4.20
2017-10-29T22:14:07.905Z,4.10
2017-10-29T22:16:36.028Z,4.20
2017-10-29T22:19:04.097Z,4.10
2017-10-29T22:21:32.099Z,4.10
2017-10-29T22:24:00.233Z,4.00
2017-10-29T22:26:28.470Z,4.00
2017-10-29T22:28:56.566Z,4.10
2017-10-29T22:31:24.952Z,4.10
2017-10-29T22:33:53.249Z,4.10
2017-10-29T22:36:21.371Z,4.10
2017-10-29T22:38:52.626Z,4.10
2017-10-29T22:41:20.568Z,4.10
2017-10-29T22:43:48.774Z,4.10
2017-10-29T22:46:16.887Z,4.10
2017-10-29T22:48:45.349Z,4.10
2017-10-29T22:51:13.334Z,4.00
2017-10-29T22:53:41.494Z,4.10
2017-10-29T22:56:09.638Z,4.10
2017-10-29T22:58:37.709Z,4.10
2017-10-29T23:01:05.827Z,4.10
2017-10-29T23:03:33.868Z,4.10
2017-10-29T23:06:03.691Z,4.10
2017-10-29T23:08:31.734Z,4.10
2017-10-29T23:10:59.599Z,4.10
2017-10-29T23:13:27.627Z,4.00
2017-10-29T23:15:55.451Z,4.00
2017-10-29T23:18:23.562Z,4.00
2017-10-29T23:20:51.637Z,4.00
2017-10-29T23:23:20.115Z,4.00
2017-10-29T23:25:48.135Z,3.90
2017-10-29T23:28:16.097Z,3.90
2017-10-29T23:30:44.078Z,3.90
2017-10-29T23:33:12.363Z,3.90
2017-10-29T23:35:40.204Z,3.90
2017-10-29T23:38:09.060Z,3.90
2017-10-29T23:40:37.099Z,3.90
2017-10-29T23:43:04.940Z,3.90
2017-10-29T23:45:33.664Z,3.90
2017-10-29T23:48:02.574Z,3.90
2017-10-29T23:50:30.350Z,3.90
2017-10-29T23:52:59.127Z,3.90
2017-10-29T23:55:27.220Z,3.80
2017-10-29T23:57:55.163Z,3.90
